Time;durP1;ratioP1;P1;durP2;ratioP2;P2;SDS_P1;SDS_P2;PMS_P1;PMS_P2;Temp;Humidity;BMP_temperature;BMP_pressure;BME280_temperature;BME280_humidity;BME280_pressure;Samples;Min_cycle;Max_cycle;Signal;HPM_P1;HPM_P2
2023/06/12 00:10:35;;;;;;;7.78;5.15;;;;;;;;;;5263285;23;20069;-96
2023/06/12 00:15:47;;;;;;;11.73;5.88;;;;;;;;;;5062173;23;20037;-90
2023/06/12 00:18:26;;;;;;;9.80;5.40;;;;;;;;;;5044386;23;20053;-92
2023/06/12 00:58:46;;;;;;;7.30;4.55;;;;;;;;;;5367453;22;20057;-96
2023/06/12 01:06:55;;;;;;;6.47;4.32;;;;;;;;;;5859360;22;19920;-92
2023/06/12 01:24:30;;;;;;;6.35;4.43;;;;;;;;;;5493391;23;20513;-91
2023/06/12 01:48:20;;;;;;;8.07;4.28;;;;;;;;;;6084769;23;20039;-92
2023/06/12 01:50:49;;;;;;;12.38;5.00;;;;;;;;;;4992597;28;20050;-92
2023/06/12 01:53:16;;;;;;;6.13;4.40;;;;;;;;;;5007047;23;20034;-91
2023/06/12 02:02:14;;;;;;;8.43;4.63;;;;;;;;;;5047763;23;20066;-96
2023/06/12 02:24:32;;;;;;;10.10;5.47;;;;;;;;;;6030452;23;20266;-92
2023/06/12 02:30:15;;;;;;;7.63;5.10;;;;;;;;;;5047690;23;20041;-92
2023/06/12 02:52:59;;;;;;;8.95;4.53;;;;;;;;;;5042066;23;20147;-93
2023/06/12 02:55:25;;;;;;;7.50;5.13;;;;;;;;;;5015650;28;20372;-90
2023/06/12 03:00:30;;;;;;;7.70;4.80;;;;;;;;;;5086881;23;20054;-96
2023/06/12 03:30:26;;;;;;;11.55;5.03;;;;;;;;;;5141433;23;20050;-93
2023/06/12 03:50:34;;;;;;;5.15;3.70;;;;;;;;;;5037012;28;20068;-93
2023/06/12 03:56:22;;;;;;;8.52;3.25;;;;;;;;;;5031942;28;20053;-94
2023/06/12 04:01:52;;;;;;;5.93;3.33;;;;;;;;;;5028026;28;20431;-92
2023/06/12 04:04:18;;;;;;;7.82;3.33;;;;;;;;;;5014876;28;20036;-92
2023/06/12 04:12:24;;;;;;;6.47;3.35;;;;;;;;;;5354813;23;20133;-96
2023/06/12 04:14:50;;;;;;;6.63;3.20;;;;;;;;;;5011619;28;20407;-91
2023/06/12 04:17:17;;;;;;;5.57;3.33;;;;;;;;;;5004902;28;20034;-92
2023/06/12 04:19:43;;;;;;;6.18;3.40;;;;;;;;;;5000840;28;20491;-92
2023/06/12 04:22:12;;;;;;;8.00;3.17;;;;;;;;;;5003322;28;20124;-92
2023/06/12 04:24:53;;;;;;;8.00;3.38;;;;;;;;;;5003445;28;20467;-96
2023/06/12 04:27:25;;;;;;;6.03;3.20;;;;;;;;;;5008655;28;20030;-96
2023/06/12 04:30:10;;;;;;;4.20;2.93;;;;;;;;;;5002606;28;20033;-95
2023/06/12 04:35:19;;;;;;;5.35;3.20;;;;;;;;;;5037086;23;20105;-96
2023/06/12 04:38:05;;;;;;;5.63;3.08;;;;;;;;;;4999327;28;20048;-94
2023/06/12 04:40:35;;;;;;;4.20;3.42;;;;;;;;;;5002712;28;20041;-92
2023/06/12 04:43:03;;;;;;;5.53;3.67;;;;;;;;;;5002895;28;20026;-93
2023/06/12 04:53:47;;;;;;;4.82;2.65;;;;;;;;;;5969184;23;20044;31
2023/06/12 04:57:02;;;;;;;4.55;2.35;;;;;;;;;;4966403;29;20061;-94
2023/06/12 05:00:15;;;;;;;3.88;2.63;;;;;;;;;;4922948;29;20052;-92
2023/06/12 05:03:06;;;;;;;3.03;2.38;;;;;;;;;;4963744;29;20087;-92
2023/06/12 05:08:10;;;;;;;4.35;2.50;;;;;;;;;;5867380;23;20073;-96
2023/06/12 05:10:36;;;;;;;3.97;2.42;;;;;;;;;;4995004;28;20076;-95
2023/06/12 05:13:02;;;;;;;4.55;2.50;;;;;;;;;;4984744;28;20031;-94
2023/06/12 05:15:37;;;;;;;4.53;2.53;;;;;;;;;;4960702;28;20061;-96
2023/06/12 05:18:09;;;;;;;4.15;2.20;;;;;;;;;;4962944;28;20042;-96
2023/06/12 05:20:47;;;;;;;4.93;2.38;;;;;;;;;;5002191;28;20038;-95
2023/06/12 05:23:22;;;;;;;5.57;2.47;;;;;;;;;;5008082;28;20035;-96
2023/06/12 05:25:48;;;;;;;6.28;2.45;;;;;;;;;;4990720;28;20521;-90
2023/06/12 05:28:15;;;;;;;6.05;2.80;;;;;;;;;;4964941;28;20019;-92
2023/06/12 05:30:41;;;;;;;3.92;2.78;;;;;;;;;;4980589;28;20045;-92
2023/06/12 05:33:10;;;;;;;6.85;2.85;;;;;;;;;;4996052;28;20022;-91
2023/06/12 05:50:27;;;;;;;;;;;;;;;;;;;;;
2023/06/12 05:56:24;;;;;;;3.50;2.53;;;;;;;;;;4956113;29;20046;-93
2023/06/12 05:58:51;;;;;;;4.53;2.28;;;;;;;;;;4940243;29;20039;-93
2023/06/12 06:01:25;;;;;;;5.90;2.78;;;;;;;;;;4941703;29;20035;-96
2023/06/12 06:03:54;;;;;;;4.18;2.40;;;;;;;;;;4940557;29;20027;-92
2023/06/12 06:06:27;;;;;;;3.80;2.30;;;;;;;;;;4940668;29;20526;-95
2023/06/12 06:08:53;;;;;;;3.80;2.13;;;;;;;;;;4947817;28;20032;-92
2023/06/12 06:19:37;;;;;;;4.07;2.20;;;;;;;;;;5226677;23;20109;-94
2023/06/12 06:30:59;;;;;;;3.25;2.25;;;;;;;;;;5361800;23;20148;-95
2023/06/12 06:46:49;;;;;;;3.45;2.20;;;;;;;;;;4988131;28;20504;-95
2023/06/12 06:49:30;;;;;;;4.40;2.50;;;;;;;;;;4979744;28;20032;-96
2023/06/12 06:55:07;;;;;;;5.00;2.72;;;;;;;;;;4963308;28;20185;-94
2023/06/12 07:00:35;;;;;;;5.78;2.53;;;;;;;;;;4934555;28;20035;-94
2023/06/12 07:03:03;;;;;;;4.65;2.67;;;;;;;;;;4964381;28;20500;-95
2023/06/12 07:05:37;;;;;;;4.15;2.58;;;;;;;;;;4960048;28;20023;-94
2023/06/12 07:08:07;;;;;;;4.85;2.42;;;;;;;;;;4958504;28;20034;-92
2023/06/12 07:10:33;;;;;;;5.28;2.80;;;;;;;;;;4958255;28;20101;-95
2023/06/12 07:13:02;;;;;;;5.30;3.00;;;;;;;;;;4977358;28;20557;-95
2023/06/12 07:15:34;;;;;;;6.47;3.08;;;;;;;;;;4959965;28;20027;-94
2023/06/12 07:18:00;;;;;;;3.70;2.73;;;;;;;;;;4957736;28;20420;-94
2023/06/12 07:20:29;;;;;;;3.42;2.65;;;;;;;;;;4957858;28;20301;-95
2023/06/12 07:22:55;;;;;;;4.88;2.90;;;;;;;;;;4957420;28;20042;-94
2023/06/12 07:25:21;;;;;;;4.72;2.78;;;;;;;;;;4958122;28;20027;-94
2023/06/12 07:27:48;;;;;;;4.50;2.63;;;;;;;;;;4959362;28;20029;-94
2023/06/12 07:33:43;;;;;;;4.63;2.58;;;;;;;;;;4917478;29;20044;-95
2023/06/12 07:49:03;;;;;;;3.38;2.55;;;;;;;;;;4958798;28;20060;-95
2023/06/12 07:51:29;;;;;;;4.25;2.80;;;;;;;;;;4944644;29;20548;-93
2023/06/12 07:54:07;;;;;;;3.10;2.75;;;;;;;;;;4948115;29;20023;-96
2023/06/12 07:56:44;;;;;;;4.57;2.45;;;;;;;;;;4949706;29;20031;-93
2023/06/12 08:02:28;;;;;;;3.13;2.20;;;;;;;;;;4962466;29;20138;-94
2023/06/12 08:05:03;;;;;;;3.97;2.30;;;;;;;;;;4945274;29;20065;-94
2023/06/12 08:07:30;;;;;;;2.97;2.25;;;;;;;;;;4956408;29;20050;-93
2023/06/12 08:09:57;;;;;;;2.97;2.50;;;;;;;;;;4957331;29;20551;-90
2023/06/12 08:12:23;;;;;;;4.10;2.70;;;;;;;;;;4941177;29;20046;-91
2023/06/12 08:14:51;;;;;;;3.42;2.55;;;;;;;;;;4941786;29;20055;-91
2023/06/12 08:17:18;;;;;;;3.88;2.42;;;;;;;;;;4942115;29;20035;-92
2023/06/12 08:19:46;;;;;;;3.53;2.40;;;;;;;;;;4941386;29;20086;-91
2023/06/12 08:22:12;;;;;;;3.03;2.20;;;;;;;;;;4940565;29;20039;-92
2023/06/12 08:24:51;;;;;;;4.43;2.50;;;;;;;;;;4941781;29;20027;-92
2023/06/12 08:27:48;;;;;;;3.65;2.50;;;;;;;;;;4944477;29;20030;-94
2023/06/12 08:33:26;;;;;;;3.85;2.30;;;;;;;;;;4963126;29;20118;-94
2023/06/12 08:39:01;;;;;;;4.55;2.30;;;;;;;;;;4960066;28;20034;-92
2023/06/12 08:52:36;;;;;;;2.80;2.00;;;;;;;;;;4996354;28;20137;-93
2023/06/12 08:55:50;;;;;;;2.95;1.98;;;;;;;;;;4975412;28;20026;-94
2023/06/12 09:02:09;;;;;;;6.10;2.10;;;;;;;;;;4868221;29;20041;-92
2023/06/12 09:04:54;;;;;;;3.08;2.30;;;;;;;;;;4855935;29;20182;-94
2023/06/12 09:28:15;;;;;;;4.65;2.40;;;;;;;;;;5016299;28;20029;-93
2023/06/12 09:31:16;;;;;;;3.95;2.70;;;;;;;;;;5002946;28;20038;-96
2023/06/12 09:39:47;;;;;;;3.83;2.60;;;;;;;;;;5017451;28;20053;-96
2023/06/12 09:45:20;;;;;;;4.05;2.70;;;;;;;;;;5094659;23;20090;-96
2023/06/12 09:54:13;;;;;;;3.42;2.80;;;;;;;;;;4999630;28;20134;-95
2023/06/12 10:08:33;;;;;;;3.28;2.70;;;;;;;;;;4877299;29;20037;-95
2023/06/12 10:11:26;;;;;;;5.07;2.90;;;;;;;;;;4873966;29;20041;-92
2023/06/12 10:38:54;;;;;;;4.65;3.17;;;;;;;;;;4994855;28;20116;-93
2023/06/12 10:41:33;;;;;;;5.03;2.80;;;;;;;;;;4958651;28;20043;-93
2023/06/12 10:44:24;;;;;;;4.13;2.70;;;;;;;;;;4961489;28;20023;-95
2023/06/12 10:49:58;;;;;;;4.25;2.80;;;;;;;;;;5008151;28;20049;-93
2023/06/12 10:52:25;;;;;;;4.35;2.60;;;;;;;;;;4986955;28;20030;-91
2023/06/12 10:55:10;;;;;;;5.75;2.55;;;;;;;;;;5004429;28;20376;-93
2023/06/12 10:57:53;;;;;;;3.92;2.25;;;;;;;;;;5001346;23;20395;-94
2023/06/12 11:00:27;;;;;;;5.18;2.70;;;;;;;;;;4980168;28;20083;-96
2023/06/12 11:03:12;;;;;;;4.07;2.67;;;;;;;;;;4967261;28;20107;-94
2023/06/12 11:05:54;;;;;;;3.53;2.70;;;;;;;;;;4966052;28;20153;-92
2023/06/12 11:08:27;;;;;;;4.35;2.80;;;;;;;;;;4991218;23;20050;-93
2023/06/12 11:14:05;;;;;;;4.43;3.08;;;;;;;;;;5098106;23;20117;-93
2023/06/12 11:16:31;;;;;;;3.80;2.85;;;;;;;;;;4983531;28;20480;-92
2023/06/12 11:19:10;;;;;;;9.63;3.05;;;;;;;;;;4982363;28;20034;-93
2023/06/12 11:21:58;;;;;;;5.22;2.70;;;;;;;;;;4987482;28;20050;-93
2023/06/12 11:24:33;;;;;;;5.25;2.90;;;;;;;;;;4985678;28;20125;-94
2023/06/12 11:27:12;;;;;;;3.28;2.60;;;;;;;;;;4995949;28;20034;-94
2023/06/12 11:32:42;;;;;;;5.00;2.70;;;;;;;;;;4991968;28;20058;-93
2023/06/12 11:35:30;;;;;;;4.25;2.55;;;;;;;;;;4993271;28;20041;-93
2023/06/12 11:38:59;;;;;;;4.00;2.40;;;;;;;;;;4995825;28;20041;-93
2023/06/12 11:52:45;;;;;;;4.18;2.55;;;;;;;;;;5046731;23;20427;-96
2023/06/12 11:55:27;;;;;;;3.58;2.38;;;;;;;;;;5010550;28;20033;-93
2023/06/12 11:57:54;;;;;;;3.42;2.47;;;;;;;;;;5011291;28;20030;-92
2023/06/12 12:06:16;;;;;;;5.82;2.80;;;;;;;;;;5030667;28;20041;-94
2023/06/12 12:12:39;;;;;;;5.22;2.60;;;;;;;;;;5269327;23;20064;-96
2023/06/12 12:15:34;;;;;;;6.10;2.20;;;;;;;;;;5010827;28;20022;-92
2023/06/12 12:18:08;;;;;;;7.00;2.80;;;;;;;;;;5008317;28;20041;-92
2023/06/12 12:20:38;;;;;;;5.00;2.10;;;;;;;;;;4991089;28;20064;-92
2023/06/12 12:23:10;;;;;;;6.22;2.35;;;;;;;;;;5000795;28;20109;-92
2023/06/12 12:25:44;;;;;;;5.93;2.03;;;;;;;;;;5011528;28;20403;-93
2023/06/12 12:28:16;;;;;;;4.18;2.08;;;;;;;;;;5013612;28;20022;-92
2023/06/12 12:30:42;;;;;;;4.80;2.08;;;;;;;;;;5118393;23;20474;-91
2023/06/12 12:33:25;;;;;;;2.70;1.77;;;;;;;;;;5025537;28;20061;-93
2023/06/12 12:36:19;;;;;;;3.70;2.10;;;;;;;;;;5003145;28;20038;-92
2023/06/12 12:41:30;;;;;;;2.63;1.73;;;;;;;;;;4961183;29;19972;-91
2023/06/12 12:44:16;;;;;;;4.97;2.15;;;;;;;;;;4941132;29;20054;-96
2023/06/12 12:46:58;;;;;;;3.88;2.00;;;;;;;;;;4947828;29;20138;-90
2023/06/12 12:49:58;;;;;;;6.00;2.22;;;;;;;;;;4933089;29;20103;-94
2023/06/12 12:52:40;;;;;;;3.35;2.10;;;;;;;;;;4937677;29;20067;-94
2023/06/12 12:55:25;;;;;;;4.25;2.22;;;;;;;;;;4934902;29;20059;-94
2023/06/12 12:57:51;;;;;;;5.97;2.25;;;;;;;;;;4930138;29;20032;-93
2023/06/12 13:00:23;;;;;;;2.83;1.80;;;;;;;;;;4931439;29;20040;-96
2023/06/12 13:03:11;;;;;;;4.10;2.17;;;;;;;;;;4938551;29;20438;-96
2023/06/12 13:09:02;;;;;;;3.47;2.03;;;;;;;;;;4980284;23;20064;-92
2023/06/12 13:11:34;;;;;;;9.98;2.30;;;;;;;;;;5023983;28;20105;-96
2023/06/12 13:14:13;;;;;;;3.92;1.92;;;;;;;;;;5008062;28;20041;-95
2023/06/12 13:16:43;;;;;;;3.90;1.90;;;;;;;;;;4999317;28;20037;-91
2023/06/12 13:19:10;;;;;;;5.07;1.90;;;;;;;;;;5011328;28;20029;-95
2023/06/12 13:28:27;;;;;;;2.80;1.65;;;;;;;;;;4994393;28;20069;-96
2023/06/12 13:31:24;;;;;;;4.15;2.13;;;;;;;;;;4976236;28;20408;-96
2023/06/12 13:36:26;;;;;;;6.03;1.98;;;;;;;;;;5178158;23;20145;-93
2023/06/12 13:39:21;;;;;;;7.15;2.08;;;;;;;;;;5012642;28;20025;-94
2023/06/12 13:45:09;;;;;;;7.32;2.10;;;;;;;;;;5022692;28;20034;-96
2023/06/12 13:53:42;;;;;;;4.15;2.05;;;;;;;;;;5030480;28;20040;-96
2023/06/12 13:59:34;;;;;;;3.53;1.85;;;;;;;;;;4986618;28;20054;-94
2023/06/12 14:02:21;;;;;;;4.43;2.15;;;;;;;;;;4989183;28;20408;-96
2023/06/12 14:05:13;;;;;;;3.67;2.17;;;;;;;;;;4983446;28;20090;-94
2023/06/12 14:07:42;;;;;;;3.47;2.00;;;;;;;;;;4985210;28;20046;-93
2023/06/12 14:13:14;;;;;;;3.33;2.15;;;;;;;;;;5005867;28;20087;-94
2023/06/12 14:15:42;;;;;;;5.28;2.17;;;;;;;;;;4991624;28;20023;-95
2023/06/12 14:29:26;;;;;;;3.25;1.98;;;;;;;;;;4998385;28;20093;-92
2023/06/12 14:31:52;;;;;;;4.47;2.03;;;;;;;;;;4979302;28;20575;-92
2023/06/12 14:34:21;;;;;;;5.63;2.25;;;;;;;;;;4984308;28;20034;-94
2023/06/12 14:36:57;;;;;;;3.67;2.17;;;;;;;;;;4992352;28;20126;-93
2023/06/12 14:39:23;;;;;;;5.45;2.35;;;;;;;;;;4988140;28;20054;-92
2023/06/12 14:41:49;;;;;;;5.55;2.33;;;;;;;;;;4987144;28;20037;-92
2023/06/12 14:47:22;;;;;;;;;;;;;;;;;;5007970;28;20109;-96
2023/06/12 14:49:48;;;;;;;6.13;2.53;;;;;;;;;;4990730;28;19905;-91
2023/06/12 14:52:15;;;;;;;4.18;2.35;;;;;;;;;;4985914;28;20030;-93
2023/06/12 14:54:42;;;;;;;7.32;2.60;;;;;;;;;;4986128;28;20022;-93
2023/06/12 15:03:11;;;;;;;6.60;3.25;;;;;;;;;;4981538;28;20622;-92
2023/06/12 15:05:37;;;;;;;3.97;2.33;;;;;;;;;;4981787;28;21181;-94
2023/06/12 15:08:03;;;;;;;5.00;2.00;;;;;;;;;;4981607;28;20037;-94
2023/06/12 15:10:30;;;;;;;2.85;1.90;;;;;;;;;;4981567;28;20108;-94
2023/06/12 15:12:56;;;;;;;4.60;2.00;;;;;;;;;;4982096;28;20121;-91
2023/06/12 15:15:23;;;;;;;4.03;1.98;;;;;;;;;;4981073;28;20024;-93
2023/06/12 15:17:50;;;;;;;5.30;2.20;;;;;;;;;;4981371;28;20125;-92
2023/06/12 15:20:16;;;;;;;3.42;2.05;;;;;;;;;;4981157;28;20042;-94
2023/06/12 15:22:42;;;;;;;4.38;2.00;;;;;;;;;;4981162;28;20022;-94
2023/06/12 15:25:09;;;;;;;5.07;2.10;;;;;;;;;;4980960;28;20029;-93
2023/06/12 15:27:35;;;;;;;4.22;2.13;;;;;;;;;;4978572;28;20054;-92
2023/06/12 15:30:02;;;;;;;4.65;2.13;;;;;;;;;;4977508;28;20098;-94
2023/06/12 15:32:28;;;;;;;5.68;2.00;;;;;;;;;;4978074;28;20109;-94
2023/06/12 15:34:55;;;;;;;17.80;6.28;;;;;;;;;;4978886;28;20041;-92
2023/06/12 15:37:21;;;;;;;4.35;2.05;;;;;;;;;;4984081;28;20034;-91
2023/06/12 15:39:48;;;;;;;3.90;1.95;;;;;;;;;;4979853;28;20066;-93
2023/06/12 15:42:14;;;;;;;4.75;2.10;;;;;;;;;;4977866;28;20114;-93
2023/06/12 15:44:41;;;;;;;3.53;1.98;;;;;;;;;;4977662;28;20158;-93
2023/06/12 15:47:07;;;;;;;5.88;1.95;;;;;;;;;;4977088;28;20023;-91
2023/06/12 15:49:42;;;;;;;6.07;1.77;;;;;;;;;;4976592;28;20038;-96
2023/06/12 15:52:11;;;;;;;4.78;1.90;;;;;;;;;;4978975;28;20023;-90
2023/06/12 15:54:37;;;;;;;3.13;1.65;;;;;;;;;;4978820;28;20041;-92
2023/06/12 15:57:45;;;;;;;5.95;2.00;;;;;;;;;;4978546;28;20420;-96
2023/06/12 16:00:20;;;;;;;4.55;1.95;;;;;;;;;;4970608;28;20053;-96
2023/06/12 16:03:07;;;;;;;3.78;1.63;;;;;;;;;;4978216;28;20472;-96
2023/06/12 16:05:40;;;;;;;3.50;1.70;;;;;;;;;;4978943;28;20039;-95
2023/06/12 16:08:06;;;;;;;4.38;1.92;;;;;;;;;;4977982;28;20113;-91
2023/06/12 16:10:32;;;;;;;3.72;1.80;;;;;;;;;;4977963;28;20129;-91
2023/06/12 16:12:58;;;;;;;2.25;1.65;;;;;;;;;;4978654;28;20031;-91
2023/06/12 16:15:25;;;;;;;6.00;1.85;;;;;;;;;;4976680;28;20023;-92
2023/06/12 16:17:52;;;;;;;4.55;1.80;;;;;;;;;;4976994;28;20029;-91
2023/06/12 16:20:18;;;;;;;3.97;1.70;;;;;;;;;;4977071;28;20043;-92
2023/06/12 16:22:45;;;;;;;6.50;1.90;;;;;;;;;;4977497;28;20031;-92
2023/06/12 16:25:11;;;;;;;5.05;1.90;;;;;;;;;;4977565;28;20027;-91
2023/06/12 16:27:37;;;;;;;4.93;1.90;;;;;;;;;;4977375;28;20051;-92
2023/06/12 16:30:04;;;;;;;6.05;1.80;;;;;;;;;;4976804;28;20019;-92
2023/06/12 16:32:33;;;;;;;3.05;1.90;;;;;;;;;;4977813;28;20027;-91
2023/06/12 16:35:02;;;;;;;3.78;2.10;;;;;;;;;;4980789;28;20058;-96
2023/06/12 16:37:58;;;;;;;3.42;1.80;;;;;;;;;;4981514;28;20031;-96
2023/06/12 16:40:25;;;;;;;9.23;2.47;;;;;;;;;;4982991;28;20039;-91
2023/06/12 16:43:00;;;;;;;5.03;1.90;;;;;;;;;;4966757;28;20039;-96
2023/06/12 16:45:57;;;;;;;4.00;1.90;;;;;;;;;;4982700;28;20547;-91
2023/06/12 16:48:26;;;;;;;3.65;2.05;;;;;;;;;;4981897;28;20041;-94
2023/06/12 16:50:55;;;;;;;4.50;1.90;;;;;;;;;;4979809;28;20027;-92
2023/06/12 16:53:21;;;;;;;4.47;1.95;;;;;;;;;;4976011;28;20121;-92
2023/06/12 16:55:47;;;;;;;4.20;1.83;;;;;;;;;;4976570;28;20023;-92
2023/06/12 16:58:14;;;;;;;4.40;2.00;;;;;;;;;;4978236;28;20077;-90
2023/06/12 17:00:40;;;;;;;3.88;1.70;;;;;;;;;;4979027;28;20045;-96
2023/06/12 17:03:10;;;;;;;6.75;2.05;;;;;;;;;;4980296;28;20030;-91
2023/06/12 17:05:48;;;;;;;4.82;1.92;;;;;;;;;;4983217;28;20031;-96
2023/06/12 17:08:14;;;;;;;6.07;2.17;;;;;;;;;;4982269;28;20035;-91
2023/06/12 17:13:44;;;;;;;6.38;2.03;;;;;;;;;;4978473;28;20543;-94
2023/06/12 17:16:10;;;;;;;2.78;1.83;;;;;;;;;;4979893;28;20035;-93
2023/06/12 17:18:42;;;;;;;5.55;2.10;;;;;;;;;;4981210;28;20468;-90
2023/06/12 17:21:08;;;;;;;4.85;1.88;;;;;;;;;;4980079;28;20051;-94
2023/06/12 17:23:34;;;;;;;3.67;1.90;;;;;;;;;;4977188;28;20481;-96
2023/06/12 17:26:04;;;;;;;8.23;2.35;;;;;;;;;;4976833;28;20038;-94
2023/06/12 17:28:32;;;;;;;5.97;2.05;;;;;;;;;;4991239;28;20125;-94
2023/06/12 17:31:01;;;;;;;4.65;2.00;;;;;;;;;;4985389;28;20077;-93
2023/06/12 17:36:40;;;;;;;4.72;1.98;;;;;;;;;;4997951;28;20555;-92
2023/06/12 17:39:22;;;;;;;5.43;1.90;;;;;;;;;;4988151;28;20026;-95
2023/06/12 17:44:58;;;;;;;4.43;1.98;;;;;;;;;;4990963;28;20487;-92
2023/06/12 17:47:28;;;;;;;4.07;1.90;;;;;;;;;;4981045;28;20030;-90
2023/06/12 17:49:55;;;;;;;8.38;2.55;;;;;;;;;;4978359;28;20093;-93
2023/06/12 17:52:21;;;;;;;5.50;2.03;;;;;;;;;;4977965;28;20022;-91
2023/06/12 17:54:47;;;;;;;8.57;2.20;;;;;;;;;;4977956;28;20399;-92
2023/06/12 17:57:13;;;;;;;6.32;1.95;;;;;;;;;;4979446;28;20464;-92
2023/06/12 17:59:52;;;;;;;7.05;2.33;;;;;;;;;;4983596;28;20169;-96
2023/06/12 18:02:29;;;;;;;4.78;2.20;;;;;;;;;;4983690;28;20027;-91
2023/06/12 18:04:58;;;;;;;6.60;2.47;;;;;;;;;;4979837;28;20030;-93
2023/06/12 18:07:27;;;;;;;7.53;2.10;;;;;;;;;;4979558;28;20037;-96
2023/06/12 18:10:01;;;;;;;4.80;2.00;;;;;;;;;;4986728;28;20030;-94
2023/06/12 18:16:04;;;;;;;4.22;2.17;;;;;;;;;;5198663;23;20092;-93
2023/06/12 18:18:30;;;;;;;5.18;2.38;;;;;;;;;;4979621;28;20120;-95
2023/06/12 18:20:56;;;;;;;6.57;2.10;;;;;;;;;;4977733;28;20045;-92
2023/06/12 18:23:23;;;;;;;4.78;2.15;;;;;;;;;;4976967;28;20066;-91
2023/06/12 18:25:52;;;;;;;5.00;2.20;;;;;;;;;;4979939;28;20038;-95
2023/06/12 18:28:19;;;;;;;5.18;2.35;;;;;;;;;;4978375;28;20042;-92
2023/06/12 18:31:04;;;;;;;4.32;2.25;;;;;;;;;;4978263;28;20031;-96
2023/06/12 18:33:39;;;;;;;5.80;2.22;;;;;;;;;;4986369;28;20057;-94
2023/06/12 18:36:07;;;;;;;4.97;2.38;;;;;;;;;;5005772;28;20018;-92
2023/06/12 18:38:44;;;;;;;5.18;2.10;;;;;;;;;;4986511;28;20018;-96
2023/06/12 18:41:10;;;;;;;10.35;2.72;;;;;;;;;;4978652;28;20046;-92
2023/06/12 18:43:48;;;;;;;4.38;2.70;;;;;;;;;;4980089;28;20018;-96
2023/06/12 18:46:45;;;;;;;7.95;2.40;;;;;;;;;;5078219;23;20057;-94
2023/06/12 18:49:22;;;;;;;5.50;2.33;;;;;;;;;;5125291;23;20050;31
2023/06/12 18:54:52;;;;;;;6.25;2.38;;;;;;;;;;5624294;23;20530;-95
2023/06/12 18:57:18;;;;;;;6.38;2.50;;;;;;;;;;4999457;28;20479;-95
2023/06/12 18:59:45;;;;;;;7.28;2.20;;;;;;;;;;5001887;28;20022;-95
2023/06/12 19:02:11;;;;;;;8.95;2.38;;;;;;;;;;5003519;28;20033;-94
2023/06/12 19:04:37;;;;;;;10.48;2.35;;;;;;;;;;4996657;28;20029;-93
2023/06/12 19:07:07;;;;;;;6.30;2.00;;;;;;;;;;4996956;28;20046;-92
2023/06/12 19:09:35;;;;;;;5.22;2.50;;;;;;;;;;5015551;28;20026;-90
2023/06/12 19:12:02;;;;;;;6.38;2.63;;;;;;;;;;4992118;28;20045;-90
2023/06/12 19:14:28;;;;;;;6.68;2.25;;;;;;;;;;4995773;28;20054;-89
2023/06/12 19:16:54;;;;;;;5.03;2.10;;;;;;;;;;4997267;28;20169;-90
2023/06/12 19:19:20;;;;;;;4.25;2.30;;;;;;;;;;4996238;28;20026;-93
2023/06/12 19:21:46;;;;;;;6.40;2.30;;;;;;;;;;4982384;28;20435;-90
2023/06/12 19:24:12;;;;;;;6.03;2.50;;;;;;;;;;4985150;28;20026;-91
2023/06/12 19:26:38;;;;;;;4.97;2.25;;;;;;;;;;5000311;28;20111;-92
2023/06/12 19:29:04;;;;;;;5.47;2.20;;;;;;;;;;5000527;28;20121;-91
2023/06/12 19:31:30;;;;;;;6.47;2.60;;;;;;;;;;4985086;28;20030;-91
2023/06/12 19:33:57;;;;;;;3.80;2.17;;;;;;;;;;4999152;28;20029;-90
2023/06/12 19:36:32;;;;;;;4.18;2.40;;;;;;;;;;4988976;28;20038;-96
2023/06/12 19:39:28;;;;;;;5.88;2.13;;;;;;;;;;4981558;28;20023;-95
2023/06/12 19:41:54;;;;;;;5.95;2.22;;;;;;;;;;4981152;28;20061;-93
2023/06/12 19:47:16;;;;;;;5.47;2.60;;;;;;;;;;5170012;23;20064;-91
2023/06/12 19:49:42;;;;;;;3.40;2.25;;;;;;;;;;5000157;28;20105;-92
2023/06/12 19:58:14;;;;;;;8.55;2.65;;;;;;;;;;4982139;28;20130;-92
2023/06/12 20:03:55;;;;;;;5.07;2.40;;;;;;;;;;4979501;28;20119;-92
2023/06/12 20:06:24;;;;;;;8.40;2.30;;;;;;;;;;4960422;28;20042;-96
2023/06/12 20:08:53;;;;;;;6.10;2.40;;;;;;;;;;4959096;28;20030;-90
2023/06/12 20:11:22;;;;;;;6.15;2.53;;;;;;;;;;4957865;28;20022;-90
2023/06/12 20:13:53;;;;;;;3.60;2.20;;;;;;;;;;4980906;28;20026;-90
2023/06/12 20:16:27;;;;;;;4.75;2.40;;;;;;;;;;4975814;28;20023;-92
2023/06/12 20:18:53;;;;;;;7.35;2.60;;;;;;;;;;4959463;28;20059;-90
2023/06/12 20:21:19;;;;;;;5.70;2.63;;;;;;;;;;4975739;28;20109;-90
2023/06/12 20:23:46;;;;;;;5.72;2.60;;;;;;;;;;4989978;28;20036;-90
2023/06/12 20:26:12;;;;;;;5.00;2.42;;;;;;;;;;4999187;28;20041;-91
2023/06/12 20:28:38;;;;;;;3.85;2.20;;;;;;;;;;5001326;28;20034;-91
2023/06/12 20:31:04;;;;;;;4.55;2.85;;;;;;;;;;4999343;28;20084;-92
2023/06/12 20:33:30;;;;;;;7.70;2.78;;;;;;;;;;4998728;28;20034;-92
2023/06/12 20:35:56;;;;;;;6.05;2.40;;;;;;;;;;4998875;28;20383;-91
2023/06/12 20:38:22;;;;;;;4.55;2.53;;;;;;;;;;4998917;28;20053;-92
2023/06/12 20:40:48;;;;;;;6.18;2.72;;;;;;;;;;4998660;28;20038;-91
2023/06/12 20:43:14;;;;;;;3.97;2.28;;;;;;;;;;5016018;28;20018;-92
2023/06/12 20:45:41;;;;;;;6.57;2.50;;;;;;;;;;4995390;28;20487;-92
2023/06/12 20:48:25;;;;;;;5.40;2.38;;;;;;;;;;4995569;28;20038;-94
2023/06/12 20:51:33;;;;;;;5.10;2.50;;;;;;;;;;5000588;28;20030;-93
2023/06/12 20:53:43;;;;;;;6.18;2.35;;;;;;;;;;5014821;23;20141;-96
2023/06/12 20:56:09;;;;;;;4.03;2.67;;;;;;;;;;4980968;28;20193;-91
2023/06/12 20:58:37;;;;;;;4.45;2.00;;;;;;;;;;4983572;28;20109;-92
2023/06/12 21:01:48;;;;;;;5.18;2.28;;;;;;;;;;4993682;28;20089;-96
2023/06/12 21:04:15;;;;;;;5.15;2.20;;;;;;;;;;4977904;28;20070;-90
2023/06/12 21:06:41;;;;;;;4.18;2.33;;;;;;;;;;4959773;28;20030;-92
2023/06/12 21:09:07;;;;;;;5.32;2.63;;;;;;;;;;4959647;28;20058;-93
2023/06/12 21:11:35;;;;;;;7.38;2.30;;;;;;;;;;4959248;28;20113;-91
2023/06/12 21:14:05;;;;;;;5.22;2.30;;;;;;;;;;4976485;28;20057;-92
2023/06/12 21:19:35;;;;;;;5.35;2.40;;;;;;;;;;4976709;28;20085;-91
2023/06/12 21:22:03;;;;;;;4.20;2.30;;;;;;;;;;4959343;28;20419;-91
2023/06/12 21:24:29;;;;;;;5.28;2.53;;;;;;;;;;4959084;28;20066;-91
2023/06/12 21:26:55;;;;;;;4.10;2.60;;;;;;;;;;4959420;28;20031;-92
2023/06/12 21:29:22;;;;;;;7.18;2.65;;;;;;;;;;4959191;28;20445;-92
2023/06/12 21:31:48;;;;;;;4.32;2.63;;;;;;;;;;4974681;28;20041;-91
2023/06/12 21:34:14;;;;;;;4.45;2.08;;;;;;;;;;4978408;28;20041;-93
2023/06/12 21:39:44;;;;;;;7.47;2.30;;;;;;;;;;5029435;23;20044;-91
2023/06/12 21:42:36;;;;;;;5.93;2.33;;;;;;;;;;4996973;28;20096;-92
2023/06/12 21:45:02;;;;;;;3.72;2.20;;;;;;;;;;4997021;28;20065;-92
2023/06/12 21:47:29;;;;;;;4.75;2.55;;;;;;;;;;4997077;28;20116;-90
2023/06/12 21:49:55;;;;;;;4.10;2.30;;;;;;;;;;4998500;28;20064;-92
2023/06/12 21:52:22;;;;;;;5.85;2.53;;;;;;;;;;5001905;28;20017;-92
2023/06/12 21:54:48;;;;;;;9.00;2.47;;;;;;;;;;4997304;28;20037;-91
2023/06/12 21:57:14;;;;;;;8.45;2.53;;;;;;;;;;4997452;28;20065;-91
2023/06/12 21:59:40;;;;;;;5.38;2.63;;;;;;;;;;4997658;28;20029;-91
2023/06/12 22:02:07;;;;;;;5.65;2.65;;;;;;;;;;4997547;28;20026;-92
2023/06/12 22:04:33;;;;;;;9.05;3.30;;;;;;;;;;5001216;28;20084;-92
2023/06/12 22:06:59;;;;;;;7.28;2.97;;;;;;;;;;4997906;28;20434;-91
2023/06/12 22:09:29;;;;;;;7.30;2.97;;;;;;;;;;4987583;28;20030;-92
2023/06/12 22:11:55;;;;;;;6.63;2.58;;;;;;;;;;4997855;28;20025;-92
2023/06/12 22:14:21;;;;;;;4.70;2.20;;;;;;;;;;4997125;28;20068;-92
2023/06/12 22:16:56;;;;;;;5.80;2.55;;;;;;;;;;4996693;28;20033;-96
2023/06/12 22:19:31;;;;;;;5.47;2.97;;;;;;;;;;4978457;28;20027;-94
2023/06/12 22:22:01;;;;;;;6.45;2.60;;;;;;;;;;4979768;28;20038;-94
2023/06/12 22:24:27;;;;;;;6.63;2.80;;;;;;;;;;4989990;28;20534;-92
2023/06/12 22:26:53;;;;;;;5.28;2.72;;;;;;;;;;4978335;28;20081;-92
2023/06/12 22:29:19;;;;;;;5.50;2.78;;;;;;;;;;4978293;28;20089;-92
2023/06/12 22:31:45;;;;;;;6.35;2.70;;;;;;;;;;4977556;28;20058;-92
2023/06/12 22:37:15;;;;;;;6.20;2.65;;;;;;;;;;4999067;28;20059;-92
2023/06/12 22:42:58;;;;;;;6.90;2.65;;;;;;;;;;4974966;28;20053;-91
2023/06/12 22:45:24;;;;;;;5.00;2.80;;;;;;;;;;4955979;29;20036;-89
2023/06/12 22:47:52;;;;;;;7.85;2.65;;;;;;;;;;4955040;29;20031;-91
2023/06/12 22:50:35;;;;;;;6.50;2.97;;;;;;;;;;4957997;29;20053;-96
2023/06/12 22:53:01;;;;;;;6.28;2.70;;;;;;;;;;4954954;29;20037;-90
2023/06/12 22:55:33;;;;;;;3.42;2.30;;;;;;;;;;4955453;29;20028;-96
2023/06/12 22:57:59;;;;;;;7.82;2.35;;;;;;;;;;4957289;28;20077;-92
2023/06/12 23:00:26;;;;;;;5.95;2.45;;;;;;;;;;4970752;28;20492;-91
2023/06/12 23:02:52;;;;;;;4.15;2.28;;;;;;;;;;4977870;28;20089;-91
2023/06/12 23:05:21;;;;;;;7.07;2.10;;;;;;;;;;4977823;28;20027;-91
2023/06/12 23:07:47;;;;;;;5.20;2.75;;;;;;;;;;4977816;28;20023;-92
2023/06/12 23:10:13;;;;;;;6.45;2.53;;;;;;;;;;4959184;28;20047;-91
2023/06/12 23:12:40;;;;;;;3.08;2.15;;;;;;;;;;4960538;28;20125;-92
2023/06/12 23:15:21;;;;;;;5.47;2.33;;;;;;;;;;4978099;28;20377;-94
2023/06/12 23:17:47;;;;;;;7.38;2.50;;;;;;;;;;4969804;28;20031;-92
2023/06/12 23:20:14;;;;;;;4.22;2.60;;;;;;;;;;4977687;28;20046;-92
2023/06/12 23:22:43;;;;;;;6.88;2.60;;;;;;;;;;4977874;28;20050;-92
2023/06/12 23:25:11;;;;;;;4.50;2.67;;;;;;;;;;4982169;28;20031;-91
2023/06/12 23:27:40;;;;;;;3.75;2.50;;;;;;;;;;4977267;28;20038;-91
2023/06/12 23:30:07;;;;;;;5.68;2.88;;;;;;;;;;4958640;29;20122;-91
2023/06/12 23:32:33;;;;;;;7.03;2.55;;;;;;;;;;4974121;28;20062;-92
2023/06/12 23:34:59;;;;;;;5.10;2.60;;;;;;;;;;4958372;29;20038;-92